Allison, TX (79003)

4:45 PM CST on February 27, 2015 (GMT -0600)
RAWS CHEYENNE OK US | Change Station
CLOSE
Current Station
Personal Weather Station
Location: Reydon, OK
Elevation: 2352 ft
Nearby Weather Stations

Elev 2352 ft 35.71 °N, 99.90 °W | Updated 47 minutes ago

Snow
Snow
16 °F
Feels Like 4 °F
N
10
Wind Variable Wind from East
Gusts 14.0 mph

Today
High -- | Low -- °F
--% Chance of Precip.
Yesterday
High -- | Low -- °F
Precip. -- in
7:13 AM 6:33 PM
Waxing Gibbous, 72% visible
Pressure 30.33 in
Visibility 10.0 miles
Clouds Overcast 2300 ft
Windchill 4 °F
Dew Point 9 °F
Humidity 72%
Rainfall 0.00 in
Snow Depth Not available.
UV 1 out of 12
Pollen .80 out of 12
Air Quality Not available.
Flu Activity Not available.
METAR KHHF 272235Z AUTO 12008KT 10SM -SN OVC023 M07/M11 A3033 RMK AO2 T10711110

More Conditions Fewer Conditions

Pressure 30.33 in
Visibility 10.0 miles
Clouds Overcast 2300 ft
Windchill 4 °F
Dew Point 9 °F
Humidity 72%
Rainfall 0.00 in
Snow Depth Not available.
UV 1 out of 12
Pollen .80 out of 12
Air Quality Not available.
Flu Activity Not available.
METAR KHHF 272235Z AUTO 12008KT 10SM -SN OVC023 M07/M11 A3033 RMK AO2 T10711110

More Conditions Fewer Conditions

10-Day Weather Forecast

Almanac

Astronomy

Feb. 27, 2015 Rise Set
Actual Time
Civil Twilight
Nautical Twilight
Astronomical Twilight
Moon
Length of Visible Light
Length of Day
Tomorrow will be .
, % of the Moon is Illuminated

Today's Extremes

State Highs State Lows

Community

WunderPhotos

Upload Photos

1,800,862 photos uploaded!

WunderBlogs® & News

Nearby

Air Quality

  Air Quality AQ Index Pollutant
Not available.

Snow Depth

Station Depth Elevation

Earthquake Activity

City Distance Mag. Time & Date
Minimum magnitude displayed is 2.5.

Coastal Water Temperatures

Place Temperature

Nearby Weather Stations